M I D A S
Marine Information and Data Acquisition System
Tripno 443 of the Zeeleeuw from 2003-03-05 10:22:25 to 2003-03-05 15:07:28
Back to CruiseResearch ActivitiesStationsMapUnderway DataData graphs

EquipmentUnitsComments
TimeDGPSUTC
LatitudeDGPSDM.mWGS84
LongitudeDGPSDM.mWGS84
SpeedMeteo Stationm/sRelative wind speed
DirectionMeteo StationdegRelative wind direction
TemperatureMeteo Stationdeg CelciusAir temperature
PressureMeteo StationPaAtmospheric pressure
HumidityMeteo Station%Relative humidity
Missing or incorrect values are displayed as -999
Metereological data collected by the RV Zeeleeuw from 2003-03-05 10:22:25 to 2003-03-05 15:07:28
                                                                                    Next 1000 lines
Time Latitude Longitude Speed Direction Temperature Pressure Humidity
2003-03-05 10:22:33 51°13.696 2°55.758 3.8 116 11.2 101560 86
2003-03-05 10:22:38 51°13.697 2°55.759 3.3 103 11.2 101560 86
2003-03-05 10:22:43 51°13.698 2°55.76 3.3 96 11.2 101560 86
2003-03-05 10:22:48 51°13.699 2°55.761 2.9 98 11.2 101560 86
2003-03-05 10:22:53 51°13.7 2°55.761 3.3 93 11.2 101560 86
2003-03-05 10:22:56 51°13.7 2°55.76 3.1 94 11.2 101560 86
2003-03-05 10:23:03 51°13.7 2°55.758 2.9 95 11.2 101560 86
2003-03-05 10:23:08 51°13.7 2°55.757 3.7 82 11.2 101560 86
2003-03-05 10:23:13 51°13.699 2°55.755 3.4 83 11.2 101560 86
2003-03-05 10:23:18 51°13.698 2°55.752 3.3 91 11.2 101560 86
2003-03-05 10:23:21 51°13.697 2°55.751 3.1 90 11.2 101560 86
2003-03-05 10:23:29 51°13.695 2°55.747 3.5 83 11.2 101560 86
2003-03-05 10:23:34 51°13.694 2°55.744 3.1 85 11.2 101560 86
2003-03-05 10:23:39 51°13.692 2°55.742 2.7 98 11.2 101560 86
2003-03-05 10:23:44 51°13.691 2°55.74 2.5 78 11.2 101560 86
2003-03-05 10:23:49 51°13.689 2°55.739 3.1 75 11.2 101560 86
2003-03-05 10:23:53 51°13.689 2°55.737 2.8 71 11.2 101560 86
2003-03-05 10:23:59 51°13.689 2°55.737 1.9 61 11.2 101560 86
2003-03-05 10:24:03 51°13.689 2°55.736 2.8 69 11.2 101560 86
2003-03-05 10:24:09 51°13.689 2°55.736 3 70 11.2 101560 86
2003-03-05 10:24:14 51°13.69 2°55.736 2.3 54 11.2 101570 86
2003-03-05 10:24:19 51°13.692 2°55.736 2.2 36 11.2 101570 86
2003-03-05 10:24:24 51°13.693 2°55.735 4 130 11.2 101570 86
2003-03-05 10:24:29 51°13.695 2°55.735 3 47 11.2 101570 86
2003-03-05 10:24:33 51°13.697 2°55.734 3.3 30 11.2 101570 86
2003-03-05 10:24:39 51°13.701 2°55.733 3.1 51 11.2 101570 86
2003-03-05 10:24:42 51°13.702 2°55.732 2.8 49 11.3 101570 86
2003-03-05 10:24:48 51°13.706 2°55.729 3.7 32 11.3 101570 86
2003-03-05 10:24:52 51°13.709 2°55.727 3.6 41 11.3 101570 86
2003-03-05 10:24:58 51°13.713 2°55.724 2.8 18 11.3 101570 86
2003-03-05 10:25:03 51°13.718 2°55.72 3 48 11.3 101570 86
2003-03-05 10:25:08 51°13.723 2°55.716 1.9 88 11.3 101570 86
2003-03-05 10:25:13 51°13.728 2°55.712 2.6 52 11.3 101570 86
2003-03-05 10:25:17 51°13.733 2°55.709 3.1 39 11.3 101570 86
2003-03-05 10:25:20 51°13.736 2°55.706 3.8 20 11.3 101570 86
2003-03-05 10:25:25 51°13.743 2°55.7 1.8 318 11.3 101570 86
2003-03-05 10:25:33 51°13.756 2°55.688 3.2 34 11.3 101560 86
2003-03-05 10:25:35 51°13.759 2°55.685 2.6 13 11.3 101560 86
2003-03-05 10:25:43 51°13.77 2°55.675 2.7 35 11.4 101560 86
2003-03-05 10:25:48 51°13.777 2°55.67 1.9 26 11.4 101560 86
2003-03-05 10:25:53 51°13.785 2°55.664 1.6 62 11.4 101570 86
2003-03-05 10:25:57 51°13.791 2°55.659 0.9 27 11.4 101570 86
2003-03-05 10:26:01 51°13.797 2°55.654 1.4 70 11.4 101570 86
2003-03-05 10:26:08 51°13.808 2°55.646 2.3 60 11.4 101570 86
2003-03-05 10:26:13 51°13.816 2°55.64 2.4 37 11.4 101570 86
2003-03-05 10:26:16 51°13.821 2°55.636 1.5 26 11.4 101570 86
2003-03-05 10:26:23 51°13.833 2°55.626 0.9 331 11.4 101560 86
2003-03-05 10:26:28 51°13.843 2°55.62 1 14 11.4 101560 86
2003-03-05 10:26:33 51°13.852 2°55.613 2.6 23 11.4 101560 86
2003-03-05 10:26:37 51°13.859 2°55.608 1.9 30 11.4 101560 86
2003-03-05 10:26:43 51°13.87 2°55.6 1.1 344 11.4 101560 86
2003-03-05 10:26:48 51°13.879 2°55.593 1.7 34 11.4 101560 86
2003-03-05 10:26:53 51°13.889 2°55.586 0.8 34 11.4 101560 86
2003-03-05 10:26:57 51°13.896 2°55.581 1.7 44 11.4 101560 86
2003-03-05 10:27:03 51°13.908 2°55.572 1.6 30 11.5 101570 86
2003-03-05 10:27:08 51°13.917 2°55.566 1.5 24 11.5 101570 86
2003-03-05 10:27:13 51°13.927 2°55.558 1.2 15 11.5 101560 86
2003-03-05 10:27:17 51°13.935 2°55.552 0.6 4 11.5 101560 86
2003-03-05 10:27:23 51°13.947 2°55.543 0.5 360 11.5 101560 86
2003-03-05 10:27:28 51°13.957 2°55.536 0.2 360 11.5 101560 86
2003-03-05 10:27:33 51°13.968 2°55.529 0.1 349 11.5 101570 86
2003-03-05 10:27:37 51°13.976 2°55.524 0.4 324 11.5 101570 86
2003-03-05 10:27:41 51°13.984 2°55.518 0.3 323 11.5 101560 86
2003-03-05 10:27:48 51°13.999 2°55.507 0.4 265 11.5 101560 86
2003-03-05 10:27:53 51°14.01 2°55.5 1.1 243 11.5 101560 86
2003-03-05 10:27:58 51°14.02 2°55.493 1.3 259 11.5 101560 86
2003-03-05 10:28:03 51°14.031 2°55.485 1.2 300 11.5 101570 86
2003-03-05 10:28:08 51°14.041 2°55.477 0.9 299 11.5 101570 86
2003-03-05 10:28:13 51°14.052 2°55.469 1 265 11.5 101570 86
2003-03-05 10:28:16 51°14.058 2°55.464 1.7 295 11.5 101570 86
2003-03-05 10:28:23 51°14.073 2°55.452 1.5 278 11.5 101570 86
2003-03-05 10:28:28 51°14.084 2°55.443 1.4 295 11.5 101570 86
2003-03-05 10:28:33 51°14.095 2°55.435 1.5 296 11.5 101560 86
2003-03-05 10:28:37 51°14.104 2°55.428 1.2 330 11.5 101560 86
2003-03-05 10:28:42 51°14.115 2°55.419 2.2 288 11.5 101570 85
2003-03-05 10:28:48 51°14.128 2°55.408 2 293 11.5 101570 85
2003-03-05 10:28:53 51°14.139 2°55.399 2.7 290 11.6 101570 85
2003-03-05 10:28:55 51°14.144 2°55.395 2.7 288 11.6 101570 85
2003-03-05 10:29:04 51°14.163 2°55.377 1.7 272 11.5 101570 85
2003-03-05 10:29:09 51°14.174 2°55.367 1.5 318 11.5 101570 85
2003-03-05 10:29:13 51°14.182 2°55.358 2.9 286 11.5 101570 85
2003-03-05 10:29:17 51°14.19 2°55.35 2.7 287 11.5 101570 85
2003-03-05 10:29:24 51°14.205 2°55.334 2.3 280 11.5 101570 85
2003-03-05 10:29:29 51°14.215 2°55.322 2.6 259 11.5 101570 85
2003-03-05 10:29:33 51°14.223 2°55.312 2.1 263 11.6 101570 85
2003-03-05 10:29:43 51°14.241 2°55.286 3.8 263 11.6 101570 85
2003-03-05 10:29:49 51°14.252 2°55.27 2.7 266 11.6 101570 85
2003-03-05 10:29:53 51°14.259 2°55.259 3.9 261 11.5 101570 85
2003-03-05 10:30:03 51°14.277 2°55.23 4.6 263 11.5 101560 85
2003-03-05 10:30:08 51°14.286 2°55.215 3.7 260 11.5 101560 85
2003-03-05 10:30:13 51°14.294 2°55.2 3 253 11.5 101570 85
2003-03-05 10:30:19 51°14.304 2°55.181 4.6 252 11.5 101570 85
2003-03-05 10:30:21 51°14.307 2°55.175 4.3 273 11.5 101570 85
2003-03-05 10:30:29 51°14.319 2°55.151 4 268 11.5 101570 85
2003-03-05 10:30:33 51°14.325 2°55.138 5.8 273 11.5 101570 85
2003-03-05 10:30:39 51°14.335 2°55.119 5.1 290 11.5 101570 85
2003-03-05 10:30:43 51°14.341 2°55.106 5.4 285 11.5 101570 85
2003-03-05 10:30:49 51°14.351 2°55.085 4.3 284 11.5 101570 85
2003-03-05 10:30:53 51°14.357 2°55.071 3.6 280 11.5 101570 85
2003-03-05 10:30:56 51°14.362 2°55.06 3.9 276 11.5 101570 85
2003-03-05 10:31:04 51°14.374 2°55.03 6 256 11.5 101560 85
2003-03-05 10:31:09 51°14.381 2°55.009 5.9 263 11.5 101560 85
2003-03-05 10:31:12 51°14.384 2°54.996 8 281 11.5 101570 85
2003-03-05 10:31:24 51°14.397 2°54.944 7 282 11.5 101560 85
2003-03-05 10:31:29 51°14.402 2°54.92 6.3 262 11.5 101560 85
2003-03-05 10:31:33 51°14.405 2°54.902 6.5 280 11.5 101560 85
2003-03-05 10:31:37 51°14.407 2°54.882 5.7 275 11.5 101560 85
2003-03-05 10:31:44 51°14.41 2°54.848 6 263 11.5 101560 85
2003-03-05 10:31:49 51°14.411 2°54.824 6.9 255 11.5 101560 85
2003-03-05 10:31:53 51°14.411 2°54.804 8.2 269 11.5 101560 85
2003-03-05 10:31:59 51°14.41 2°54.774 8.7 262 11.5 101560 85
2003-03-05 10:32:04 51°14.408 2°54.749 9.6 270 11.5 101560 85
2003-03-05 10:32:09 51°14.406 2°54.724 9.3 268 11.5 101560 85
2003-03-05 10:32:13 51°14.403 2°54.704 9.7 263 11.5 101560 84
2003-03-05 10:32:19 51°14.398 2°54.673 11.8 264 11.5 101560 84
2003-03-05 10:32:24 51°14.394 2°54.647 11.2 270 11.4 101550 84
2003-03-05 10:32:29 51°14.388 2°54.622 11.5 267 11.4 101550 84
2003-03-05 10:32:33 51°14.384 2°54.602 10.4 265 11.4 101540 84
2003-03-05 10:32:39 51°14.376 2°54.571 11.1 267 11.4 101540 84
2003-03-05 10:32:44 51°14.368 2°54.546 11.4 265 11.4 101540 84
2003-03-05 10:32:49 51°14.361 2°54.521 11.6 264 11.4 101540 84
2003-03-05 10:32:53 51°14.355 2°54.501 11.1 264 11.4 101540 84
2003-03-05 10:32:59 51°14.346 2°54.471 10.6 261 11.4 101540 84
2003-03-05 10:33:01 51°14.343 2°54.461 9.7 256 11.4 101540 84
2003-03-05 10:33:09 51°14.331 2°54.42 11.5 257 11.4 101540 84
2003-03-05 10:33:13 51°14.325 2°54.4 11.2 258 11.4 101540 84
2003-03-05 10:33:19 51°14.316 2°54.37 11.6 259 11.4 101540 84
2003-03-05 10:33:24 51°14.308 2°54.345 11.7 256 11.4 101540 84
2003-03-05 10:33:29 51°14.301 2°54.32 11.4 257 11.4 101540 84
2003-03-05 10:33:33 51°14.294 2°54.299 11.2 261 11.3 101540 84
2003-03-05 10:33:37 51°14.287 2°54.279 10.7 263 11.3 101540 84
2003-03-05 10:33:44 51°14.276 2°54.243 10.6 260 11.3 101530 84
2003-03-05 10:33:49 51°14.268 2°54.217 10.3 255 11.3 101530 84
2003-03-05 10:33:52 51°14.263 2°54.202 11.3 262 11.1 101530 84
2003-03-05 10:34:03 51°14.246 2°54.146 12.8 259 11.3 101540 84
2003-03-05 10:34:07 51°14.24 2°54.126 13.1 263 11.3 101540 84
2003-03-05 10:34:12 51°14.232 2°54.1 11.4 267 11.3 101530 84
2003-03-05 10:34:17 51°14.225 2°54.074 10.5 263 11.3 101530 84
2003-03-05 10:34:21 51°14.219 2°54.054 10.6 252 11.3 101530 84
2003-03-05 10:34:33 51°14.2 2°53.993 12.2 252 11.3 101520 84
2003-03-05 10:34:37 51°14.193 2°53.972 11 252 11.3 101520 84
2003-03-05 10:34:41 51°14.187 2°53.952 10.4 253 11.3 101530 84
2003-03-05 10:34:46 51°14.18 2°53.926 11.5 261 11.3 101530 84
2003-03-05 10:34:53 51°14.169 2°53.89 11.1 258 11.2 101540 84
2003-03-05 10:34:58 51°14.161 2°53.865 10 264 11.2 101540 84
2003-03-05 10:35:03 51°14.153 2°53.839 11.1 259 11.2 101530 84
2003-03-05 10:35:08 51°14.145 2°53.813 11 262 11.2 101530 84
2003-03-05 10:35:13 51°14.138 2°53.788 11.2 259 11.2 101530 84
2003-03-05 10:35:17 51°14.132 2°53.767 12.7 267 11.2 101530 84
2003-03-05 10:35:20 51°14.127 2°53.752 13.2 269 11.2 101540 85
2003-03-05 10:35:25 51°14.119 2°53.726 12.3 269 11.2 101540 85
2003-03-05 10:35:33 51°14.107 2°53.684 12.6 269 11.2 101540 85
2003-03-05 10:35:37 51°14.101 2°53.664 11.7 266 11.2 101540 85
2003-03-05 10:35:41 51°14.094 2°53.643 12 268 11.2 101530 84
2003-03-05 10:35:48 51°14.083 2°53.607 11.1 260 11.2 101530 84
2003-03-05 10:35:52 51°14.077 2°53.586 11.5 263 11.2 101530 84
2003-03-05 10:35:55 51°14.073 2°53.571 9.8 258 11.2 101530 84
2003-03-05 10:36:03 51°14.06 2°53.53 10.3 258 11.2 101540 84
2003-03-05 10:36:08 51°14.052 2°53.505 11.1 259 11.2 101540 84
2003-03-05 10:36:13 51°14.044 2°53.479 11.1 261 11.2 101530 84
2003-03-05 10:36:17 51°14.038 2°53.458 10.8 263 11.2 101530 84
2003-03-05 10:36:23 51°14.028 2°53.426 11.1 263 11.1 101530 84
2003-03-05 10:36:28 51°14.021 2°53.399 10.5 257 11.1 101530 84
2003-03-05 10:36:33 51°14.012 2°53.372 11.1 257 11.1 101540 84
2003-03-05 10:36:35 51°14.009 2°53.361 10.2 262 11.1 101540 84
2003-03-05 10:36:43 51°13.996 2°53.317 12 254 11.1 101540 84
2003-03-05 10:36:48 51°13.988 2°53.289 13.2 256 11.1 101540 84
2003-03-05 10:36:53 51°13.979 2°53.262 12.8 256 11.1 101530 85
2003-03-05 10:36:58 51°13.97 2°53.234 12.1 255 11.1 101530 85
2003-03-05 10:37:02 51°13.962 2°53.212 12.8 255 11.1 101530 85
2003-03-05 10:37:05 51°13.957 2°53.196 13.2 249 11.1 101530 85
2003-03-05 10:37:13 51°13.942 2°53.151 12.6 255 11.1 101520 85
2003-03-05 10:37:17 51°13.934 2°53.129 12.5 258 11.1 101520 85
2003-03-05 10:37:23 51°13.923 2°53.096 13.5 263 11.1 101520 85
2003-03-05 10:37:28 51°13.914 2°53.067 14.1 265 11.1 101520 85
2003-03-05 10:37:33 51°13.904 2°53.04 12.5 259 11.1 101520 85
2003-03-05 10:37:37 51°13.897 2°53.017 11.5 256 11.1 101520 85
2003-03-05 10:37:43 51°13.885 2°52.984 11.4 253 11.1 101520 85
2003-03-05 10:37:48 51°13.875 2°52.955 12.2 255 11.1 101520 85
2003-03-05 10:37:53 51°13.866 2°52.927 13.2 257 11.1 101510 85
2003-03-05 10:37:57 51°13.858 2°52.905 12.5 256 11.1 101510 85
2003-03-05 10:38:00 51°13.852 2°52.888 12.3 250 11 101530 85
2003-03-05 10:38:09 51°13.835 2°52.836 12.6 256 11 101530 85
2003-03-05 10:38:15 51°13.824 2°52.802 13.7 255 11 101530 85
2003-03-05 10:38:18 51°13.818 2°52.785 15.2 257 11 101530 85
2003-03-05 10:38:25 51°13.804 2°52.746 14.6 260 11 101510 85
2003-03-05 10:38:29 51°13.797 2°52.723 13.3 264 11 101510 85
2003-03-05 10:38:33 51°13.789 2°52.7 12.8 264 11 101520 85
2003-03-05 10:38:39 51°13.778 2°52.666 13.3 262 11 101520 85
2003-03-05 10:38:45 51°13.766 2°52.632 12.4 261 11 101520 85
2003-03-05 10:38:50 51°13.756 2°52.604 12.4 254 11 101520 85
2003-03-05 10:38:53 51°13.75 2°52.587 12.7 253 11 101520 85
2003-03-05 10:38:59 51°13.739 2°52.552 13.3 252 11 101520 85
2003-03-05 10:39:05 51°13.727 2°52.518 13.6 254 11 101520 85
2003-03-05 10:39:08 51°13.722 2°52.501 13.9 255 11 101520 85
2003-03-05 10:39:15 51°13.708 2°52.461 14.1 253 11 101520 85
2003-03-05 10:39:19 51°13.701 2°52.439 14.3 256 11 101520 85
2003-03-05 10:39:25 51°13.689 2°52.404 14.2 259 11 101520 85
2003-03-05 10:39:29 51°13.682 2°52.382 13.7 259 11 101520 85
2003-03-05 10:39:35 51°13.67 2°52.347 13.6 257 11 101520 85
2003-03-05 10:39:39 51°13.662 2°52.324 12.6 255 11 101520 85
2003-03-05 10:39:45 51°13.651 2°52.29 13.6 252 11 101510 85
2003-03-05 10:39:49 51°13.643 2°52.267 14 254 11 101510 85
2003-03-05 10:39:55 51°13.632 2°52.233 12.6 257 11 101510 85
2003-03-05 10:39:59 51°13.624 2°52.21 13.3 260 11 101510 85
2003-03-05 10:40:05 51°13.613 2°52.175 13.2 256 11 101510 85
2003-03-05 10:40:08 51°13.607 2°52.158 13.9 256 11 101510 85
2003-03-05 10:40:15 51°13.593 2°52.118 14.1 260 11 101520 85
2003-03-05 10:40:17 51°13.59 2°52.107 13.1 258 11 101520 85
2003-03-05 10:40:25 51°13.574 2°52.061 13.2 260 11 101520 85
2003-03-05 10:40:29 51°13.566 2°52.038 12.6 254 11 101520 85
2003-03-05 10:40:33 51°13.558 2°52.015 13.5 258 10.9 101520 85
2003-03-05 10:40:40 51°13.545 2°51.975 15.1 259 10.9 101520 85
2003-03-05 10:40:45 51°13.535 2°51.946 14.2 258 10.9 101510 85
2003-03-05 10:40:50 51°13.526 2°51.917 14.4 263 10.9 101510 85
2003-03-05 10:40:53 51°13.52 2°51.9 14.6 262 10.9 101510 85
2003-03-05 10:41:05 51°13.497 2°51.831 13.3 263 10.9 101520 85
2003-03-05 10:41:09 51°13.489 2°51.808 12.2 258 10.9 101520 85
2003-03-05 10:41:13 51°13.482 2°51.785 12 260 10.9 101520 85
2003-03-05 10:41:20 51°13.468 2°51.745 13.3 258 10.9 101520 85
2003-03-05 10:41:25 51°13.459 2°51.716 12.8 260 10.9 101520 85
2003-03-05 10:41:30 51°13.449 2°51.687 13.2 262 10.9 101520 85
2003-03-05 10:41:35 51°13.44 2°51.659 12.4 258 10.9 101520 85
2003-03-05 10:41:40 51°13.43 2°51.63 11.8 257 10.9 101520 85
2003-03-05 10:41:45 51°13.42 2°51.601 12.2 260 10.9 101520 85
2003-03-05 10:41:49 51°13.413 2°51.578 12.2 259 10.9 101520 85
2003-03-05 10:41:53 51°13.405 2°51.555 12.4 260 10.9 101510 85
2003-03-05 10:42:00 51°13.392 2°51.515 12.9 260 10.9 101510 85
2003-03-05 10:42:05 51°13.382 2°51.486 12.9 259 10.9 101520 85
2003-03-05 10:42:10 51°13.373 2°51.457 13.5 258 10.9 101520 85
2003-03-05 10:42:15 51°13.364 2°51.428 13.3 257 10.8 101520 85
2003-03-05 10:42:17 51°13.36 2°51.416 12.3 258 10.8 101520 85
2003-03-05 10:42:25 51°13.345 2°51.37 12.5 258 10.8 101510 86
2003-03-05 10:42:29 51°13.337 2°51.347 12.9 257 10.8 101510 86
2003-03-05 10:42:35 51°13.326 2°51.312 13.1 258 10.8 101510 85
2003-03-05 10:42:40 51°13.316 2°51.283 13.6 258 10.8 101510 85
2003-03-05 10:42:45 51°13.306 2°51.255 13.7 262 10.8 101520 85
2003-03-05 10:42:50 51°13.297 2°51.226 13.3 257 10.8 101520 85
2003-03-05 10:42:53 51°13.291 2°51.209 13.8 260 10.8 101510 85
2003-03-05 10:43:04 51°13.27 2°51.145 12.7 261 10.8 101510 86
2003-03-05 10:43:09 51°13.261 2°51.116 12.7 256 10.8 101510 86
2003-03-05 10:43:13 51°13.254 2°51.093 12.3 260 10.8 101510 86
2003-03-05 10:43:19 51°13.242 2°51.059 12.3 257 10.8 101510 86
2003-03-05 10:43:23 51°13.234 2°51.036 13.1 259 10.8 101510 86
2003-03-05 10:43:29 51°13.222 2°51.001 12.9 256 10.8 101510 86
2003-03-05 10:43:34 51°13.212 2°50.972 13 256 10.8 101510 86
2003-03-05 10:43:39 51°13.201 2°50.944 14.5 258 10.8 101510 86
2003-03-05 10:43:44 51°13.191 2°50.916 14.8 260 10.7 101520 86
2003-03-05 10:43:49 51°13.181 2°50.887 14.3 259 10.7 101520 86
2003-03-05 10:43:53 51°13.173 2°50.864 14.7 260 10.7 101500 86
2003-03-05 10:43:56 51°13.167 2°50.847 14.5 262 10.7 101500 86
2003-03-05 10:44:04 51°13.151 2°50.802 14.4 261 10.7 101500 86
2003-03-05 10:44:09 51°13.141 2°50.774 13.9 259 10.7 101500 86
2003-03-05 10:44:14 51°13.13 2°50.745 13.6 257 10.7 101510 86
2003-03-05 10:44:17 51°13.124 2°50.728 14.6 259 10.7 101510 86
2003-03-05 10:44:24 51°13.11 2°50.688 14.3 258 10.7 101490 86
2003-03-05 10:44:28 51°13.102 2°50.666 13.6 260 10.7 101490 86
2003-03-05 10:44:33 51°13.092 2°50.637 12.8 258 10.7 101480 86
2003-03-05 10:44:43 51°13.072 2°50.58 13.8 260 10.7 101490 86
2003-03-05 10:44:49 51°13.06 2°50.546 12.7 259 10.7 101490 86
2003-03-05 10:44:53 51°13.052 2°50.524 13.9 263 10.7 101500 86
2003-03-05 10:44:57 51°13.043 2°50.501 14.1 264 10.7 101500 86
2003-03-05 10:45:01 51°13.035 2°50.478 13.6 260 10.7 101510 86
2003-03-05 10:45:08 51°13.021 2°50.439 13.5 258 10.7 101510 86
2003-03-05 10:45:14 51°13.008 2°50.405 12.6 258 10.7 101500 86
2003-03-05 10:45:19 51°12.998 2°50.376 14.1 260 10.7 101500 86
2003-03-05 10:45:24 51°12.988 2°50.348 13.4 260 10.7 101500 86
2003-03-05 10:45:29 51°12.978 2°50.32 13.3 260 10.7 101500 86
2003-03-05 10:45:34 51°12.968 2°50.291 13.2 258 10.7 101500 86
2003-03-05 10:45:38 51°12.96 2°50.268 13.1 258 10.7 101500 86
2003-03-05 10:45:43 51°12.95 2°50.24 13.6 258 10.7 101500 86
2003-03-05 10:45:49 51°12.938 2°50.206 14 259 10.7 101500 86
2003-03-05 10:45:53 51°12.93 2°50.184 13 258 10.7 101500 86
2003-03-05 10:45:59 51°12.919 2°50.15 13 260 10.7 101500 86
2003-03-05 10:46:04 51°12.909 2°50.122 13.7 261 10.7 101500 86
2003-03-05 10:46:09 51°12.899 2°50.094 12.8 260 10.7 101500 86
2003-03-05 10:46:12 51°12.892 2°50.077 12.7 260 10.7 101500 86
2003-03-05 10:46:19 51°12.878 2°50.037 11.8 257 10.7 101500 86
2003-03-05 10:46:24 51°12.868 2°50.01 12.5 257 10.7 101500 86
2003-03-05 10:46:29 51°12.858 2°49.981 13.2 257 10.7 101500 86
2003-03-05 10:46:33 51°12.85 2°49.959 12.5 257 10.7 101500 87
2003-03-05 10:46:38 51°12.84 2°49.931 13.3 258 10.7 101500 87
2003-03-05 10:46:44 51°12.828 2°49.897 12.9 257 10.7 101510 87
2003-03-05 10:46:49 51°12.818 2°49.869 12.5 256 10.7 101510 87
2003-03-05 10:46:53 51°12.81 2°49.847 14.2 256 10.7 101510 87
2003-03-05 10:47:03 51°12.79 2°49.791 13.1 259 10.7 101500 87
2003-03-05 10:47:06 51°12.784 2°49.774 12.7 256 10.7 101500 87
2003-03-05 10:47:13 51°12.77 2°49.735 13.2 256 10.7 101500 87
2003-03-05 10:47:15 51°12.766 2°49.724 12.9 257 10.7 101500 87
2003-03-05 10:47:23 51°12.749 2°49.679 12.2 255 10.7 101500 87
2003-03-05 10:47:28 51°12.739 2°49.651 12.2 254 10.7 101500 87
2003-03-05 10:47:33 51°12.729 2°49.623 12.1 255 10.7 101500 87
2003-03-05 10:47:38 51°12.719 2°49.595 11.8 254 10.7 101500 87
2003-03-05 10:47:42 51°12.711 2°49.572 11.6 255 10.7 101500 87
2003-03-05 10:47:45 51°12.705 2°49.556 12.3 258 10.7 101500 87
2003-03-05 10:47:53 51°12.689 2°49.511 12 253 10.7 101510 87
2003-03-05 10:47:57 51°12.681 2°49.489 12 258 10.7 101510 87
2003-03-05 10:48:03 51°12.668 2°49.455 12.6 257 10.7 101510 87
2003-03-05 10:48:08 51°12.658 2°49.427 13.2 256 10.7 101510 87
2003-03-05 10:48:13 51°12.648 2°49.399 13.5 258 10.7 101500 87
2003-03-05 10:48:16 51°12.642 2°49.383 13 257 10.7 101500 87
2003-03-05 10:48:23 51°12.628 2°49.343 13.3 258 10.7 101500 87
2003-03-05 10:48:28 51°12.618 2°49.316 14 256 10.7 101500 87
2003-03-05 10:48:33 51°12.608 2°49.288 13.8 259 10.7 101500 87
2003-03-05 10:48:38 51°12.598 2°49.26 13.7 261 10.7 101500 87
2003-03-05 10:48:41 51°12.592 2°49.243 13.1 261 10.7 101500 87
2003-03-05 10:48:48 51°12.578 2°49.204 12 259 10.7 101500 87
2003-03-05 10:48:53 51°12.568 2°49.176 11.8 258 10.7 101500 87
2003-03-05 10:48:57 51°12.56 2°49.153 12.1 256 10.7 101500 87
2003-03-05 10:49:03 51°12.548 2°49.12 12.4 255 10.7 101500 87
2003-03-05 10:49:08 51°12.538 2°49.092 12 257 10.7 101500 87
2003-03-05 10:49:13 51°12.528 2°49.064 12.7 256 10.7 101500 87
2003-03-05 10:49:16 51°12.522 2°49.047 12.6 256 10.7 101500 87
2003-03-05 10:49:23 51°12.508 2°49.008 12.4 256 10.7 101510 87
2003-03-05 10:49:28 51°12.499 2°48.98 13.6 256 10.7 101510 87
2003-03-05 10:49:33 51°12.489 2°48.952 12.7 256 10.7 101510 87
2003-03-05 10:49:35 51°12.485 2°48.941 13.8 256 10.7 101510 87
2003-03-05 10:49:43 51°12.469 2°48.896 12.8 258 10.7 101500 87
2003-03-05 10:49:46 51°12.463 2°48.879 13.4 262 10.7 101500 87
2003-03-05 10:49:53 51°12.45 2°48.84 13.1 261 10.7 101500 87
2003-03-05 10:49:57 51°12.442 2°48.817 12.9 262 10.7 101500 87
2003-03-05 10:50:03 51°12.431 2°48.783 12.5 263 10.7 101500 87
2003-03-05 10:50:08 51°12.422 2°48.754 11.6 257 10.7 101500 87
2003-03-05 10:50:12 51°12.414 2°48.731 12.2 258 10.7 101500 87
2003-03-05 10:50:17 51°12.405 2°48.703 12.3 256 10.7 101500 87
2003-03-05 10:50:23 51°12.393 2°48.669 11.3 255 10.7 101500 87
2003-03-05 10:50:28 51°12.384 2°48.64 12.1 258 10.7 101500 87
2003-03-05 10:50:33 51°12.375 2°48.612 12.1 257 10.7 101510 87
2003-03-05 10:50:38 51°12.365 2°48.583 13.2 259 10.7 101510 87
2003-03-05 10:50:43 51°12.356 2°48.555 12.8 258 10.7 101510 87
2003-03-05 10:50:48 51°12.347 2°48.526 12.7 257 10.7 101510 87
2003-03-05 10:50:53 51°12.337 2°48.498 12.9 256 10.7 101510 87
2003-03-05 10:50:58 51°12.328 2°48.469 13.3 257 10.7 101510 87
2003-03-05 10:51:01 51°12.322 2°48.452 13.9 256 10.7 101510 87
2003-03-05 10:51:08 51°12.309 2°48.413 13.4 256 10.7 101510 87
2003-03-05 10:51:13 51°12.3 2°48.384 13.1 256 10.7 101500 87
2003-03-05 10:51:22 51°12.283 2°48.333 12.6 257 10.7 101510 87
2003-03-05 10:51:25 51°12.278 2°48.316 12.8 258 10.7 101510 87
2003-03-05 10:51:31 51°12.266 2°48.282 13.1 256 10.8 101490 87
2003-03-05 10:51:36 51°12.257 2°48.254 13.1 255 10.8 101490 87
2003-03-05 10:51:41 51°12.248 2°48.225 13.1 259 10.8 101500 87
2003-03-05 10:51:45 51°12.24 2°48.202 13 260 10.8 101500 87
2003-03-05 10:51:52 51°12.227 2°48.162 13 259 10.8 101490 87
2003-03-05 10:51:57 51°12.218 2°48.134 13.5 261 10.8 101490 87
2003-03-05 10:52:02 51°12.209 2°48.106 12.8 257 10.7 101500 87
2003-03-05 10:52:05 51°12.203 2°48.089 12.5 258 10.7 101500 87
2003-03-05 10:52:12 51°12.19 2°48.049 11.9 258 10.8 101500 87
2003-03-05 10:52:17 51°12.181 2°48.021 11.9 257 10.8 101500 87
2003-03-05 10:52:22 51°12.171 2°47.993 12 260 10.7 101510 87
2003-03-05 10:52:27 51°12.162 2°47.964 12.2 258 10.7 101510 87
2003-03-05 10:52:32 51°12.153 2°47.936 12.4 257 10.7 101500 87
2003-03-05 10:52:37 51°12.143 2°47.907 11.9 259 10.7 101500 87
2003-03-05 10:52:42 51°12.134 2°47.879 12.8 259 10.7 101510 87
2003-03-05 10:52:47 51°12.125 2°47.851 13 263 10.7 101510 87
2003-03-05 10:52:52 51°12.116 2°47.822 12.5 267 10.7 101510 87
2003-03-05 10:52:57 51°12.106 2°47.794 12.5 264 10.7 101510 87
2003-03-05 10:53:00 51°12.101 2°47.777 12 262 10.7 101500 87
2003-03-05 10:53:07 51°12.087 2°47.738 13.1 263 10.7 101500 87
2003-03-05 10:53:12 51°12.078 2°47.709 13 262 10.7 101500 87
2003-03-05 10:53:16 51°12.071 2°47.687 12.8 264 10.7 101500 87
2003-03-05 10:53:22 51°12.06 2°47.653 13.6 264 10.7 101500 87
2003-03-05 10:53:25 51°12.054 2°47.636 12.4 262 10.7 101500 87
2003-03-05 10:53:29 51°12.047 2°47.613 13.9 261 10.7 101500 87
2003-03-05 10:53:37 51°12.032 2°47.568 13.6 264 10.7 101500 87
2003-03-05 10:53:41 51°12.024 2°47.545 14.4 263 10.7 101500 87
2003-03-05 10:53:45 51°12.017 2°47.523 13.3 262 10.7 101500 87
2003-03-05 10:53:52 51°12.004 2°47.483 13.3 259 10.7 101490 87
2003-03-05 10:53:57 51°11.995 2°47.455 13.3 260 10.7 101490 87
2003-03-05 10:54:01 51°11.987 2°47.432 13.5 260 10.7 101500 87
2003-03-05 10:54:05 51°11.98 2°47.41 13 260 10.7 101500 87
2003-03-05 10:54:11 51°11.968 2°47.376 13.3 262 10.7 101500 87
2003-03-05 10:54:17 51°11.957 2°47.342 12.7 264 10.7 101500 87
2003-03-05 10:54:21 51°11.95 2°47.32 12.8 261 10.7 101490 87
2003-03-05 10:54:27 51°11.939 2°47.286 13.4 260 10.7 101490 87
2003-03-05 10:54:31 51°11.931 2°47.263 13.3 257 10.7 101490 87
2003-03-05 10:54:36 51°11.922 2°47.235 13.3 261 10.7 101490 87
2003-03-05 10:54:41 51°11.913 2°47.207 13.1 258 10.6 101500 87
2003-03-05 10:54:45 51°11.906 2°47.185 12.6 261 10.6 101500 87
2003-03-05 10:54:52 51°11.892 2°47.146 12.7 265 10.6 101500 87
2003-03-05 10:54:55 51°11.887 2°47.129 12.9 263 10.6 101500 87
2003-03-05 10:55:04 51°11.87 2°47.078 13 265 10.6 101500 87
2003-03-05 10:55:09 51°11.861 2°47.05 13.6 264 10.6 101500 87
2003-03-05 10:55:14 51°11.852 2°47.022 13.3 264 10.6 101500 87
2003-03-05 10:55:16 51°11.848 2°47.011 12.9 263 10.6 101500 87
2003-03-05 10:55:25 51°11.831 2°46.96 12.6 264 10.6 101500 87
2003-03-05 10:55:29 51°11.824 2°46.937 12.4 263 10.6 101500 87
2003-03-05 10:55:35 51°11.813 2°46.903 11.7 261 10.6 101490 87
2003-03-05 10:55:39 51°11.805 2°46.881 12.1 258 10.6 101490 87
2003-03-05 10:55:45 51°11.794 2°46.847 11.6 259 10.6 101490 87
2003-03-05 10:55:48 51°11.788 2°46.83 12.6 262 10.6 101490 87
2003-03-05 10:55:55 51°11.775 2°46.79 13.1 262 10.7 101500 87
2003-03-05 10:55:57 51°11.772 2°46.779 12.3 263 10.7 101500 87
2003-03-05 10:56:05 51°11.757 2°46.733 12 265 10.6 101500 87
2003-03-05 10:56:09 51°11.751 2°46.71 11.4 267 10.6 101500 87
2003-03-05 10:56:13 51°11.744 2°46.687 11.9 267 10.6 101500 87
2003-03-05 10:56:20 51°11.733 2°46.646 12 266 10.6 101500 87
2003-03-05 10:56:25 51°11.725 2°46.617 11.6 264 10.7 101500 87
2003-03-05 10:56:30 51°11.717 2°46.587 11.4 263 10.7 101500 87
2003-03-05 10:56:33 51°11.712 2°46.569 11.4 262 10.7 101500 88
2003-03-05 10:56:45 51°11.694 2°46.499 11.1 263 10.7 101510 88
2003-03-05 10:56:49 51°11.688 2°46.475 11.2 265 10.7 101510 88
2003-03-05 10:56:54 51°11.68 2°46.446 11.4 266 10.7 101510 87
2003-03-05 10:57:00 51°11.67 2°46.41 11.4 264 10.7 101510 87
2003-03-05 10:57:05 51°11.663 2°46.381 12 262 10.7 101500 87
2003-03-05 10:57:09 51°11.656 2°46.357 12 264 10.7 101500 87
2003-03-05 10:57:15 51°11.647 2°46.322 11.7 268 10.7 101500 87
2003-03-05 10:57:19 51°11.642 2°46.298 10.7 267 10.7 101500 87
2003-03-05 10:57:24 51°11.635 2°46.268 10.9 264 10.7 101500 88
2003-03-05 10:57:33 51°11.625 2°46.212 10.6 262 10.7 101500 88
2003-03-05 10:57:37 51°11.621 2°46.188 10.6 266 10.7 101500 88
2003-03-05 10:57:43 51°11.616 2°46.151 11.2 266 10.7 101500 88
2003-03-05 10:57:45 51°11.614 2°46.138 10.4 265 10.7 101500 88
2003-03-05 10:57:53 51°11.607 2°46.089 11.1 265 10.7 101510 88
2003-03-05 10:57:58 51°11.602 2°46.058 11.6 266 10.7 101510 88
2003-03-05 10:58:01 51°11.6 2°46.039 12.2 264 10.7 101510 87
2003-03-05 10:58:05 51°11.596 2°46.014 10.9 269 10.7 101510 87
2003-03-05 10:58:13 51°11.589 2°45.964 11.5 269 10.7 101510 87
2003-03-05 10:58:17 51°11.586 2°45.939 11.3 271 10.7 101510 87
2003-03-05 10:58:21 51°11.582 2°45.914 11 272 10.7 101500 88
2003-03-05 10:58:28 51°11.576 2°45.871 11.4 271 10.7 101500 88
2003-03-05 10:58:33 51°11.571 2°45.839 11.1 269 10.8 101510 88
2003-03-05 10:58:38 51°11.567 2°45.808 10.9 268 10.8 101510 88
2003-03-05 10:58:41 51°11.564 2°45.79 11.4 270 10.8 101500 88
2003-03-05 10:58:45 51°11.561 2°45.765 11.4 272 10.8 101500 88
2003-03-05 10:58:53 51°11.553 2°45.715 11.2 268 10.8 101510 88
2003-03-05 10:58:57 51°11.55 2°45.69 12.1 269 10.8 101510 88
2003-03-05 10:59:03 51°11.544 2°45.653 12 272 10.7 101500 87
2003-03-05 10:59:13 51°11.535 2°45.591 10.4 268 10.7 101500 87
2003-03-05 10:59:17 51°11.531 2°45.566 11.1 273 10.7 101500 87
2003-03-05 10:59:23 51°11.526 2°45.528 10.9 272 10.7 101500 87
2003-03-05 10:59:28 51°11.521 2°45.497 11.3 272 10.7 101500 87
2003-03-05 10:59:33 51°11.517 2°45.467 11.4 271 10.8 101510 88
2003-03-05 10:59:37 51°11.513 2°45.441 11.6 270 10.8 101510 88
2003-03-05 10:59:43 51°11.508 2°45.404 11.7 269 10.7 101510 87
2003-03-05 10:59:48 51°11.503 2°45.373 11.2 268 10.7 101510 87
2003-03-05 10:59:53 51°11.499 2°45.342 11.3 268 10.7 101510 87
2003-03-05 10:59:58 51°11.494 2°45.311 11 266 10.7 101510 87
2003-03-05 11:00:02 51°11.49 2°45.286 10.8 268 10.7 101500 87
2003-03-05 11:00:05 51°11.487 2°45.268 11 270 10.7 101500 87
2003-03-05 11:00:13 51°11.48 2°45.218 11.7 270 10.7 101500 87
2003-03-05 11:00:17 51°11.476 2°45.193 11.7 273 10.7 101500 87
2003-03-05 11:00:23 51°11.471 2°45.156 10.9 274 10.7 101500 87
2003-03-05 11:00:28 51°11.466 2°45.125 11 269 10.7 101500 87
2003-03-05 11:00:33 51°11.462 2°45.094 11.6 272 10.7 101510 87
2003-03-05 11:00:37 51°11.458 2°45.069 12 270 10.7 101510 87
2003-03-05 11:00:43 51°11.453 2°45.032 11.2 269 10.7 101510 87
2003-03-05 11:00:47 51°11.449 2°45.007 10.7 269 10.7 101510 87
2003-03-05 11:00:53 51°11.444 2°44.97 11.3 267 10.7 101510 87
2003-03-05 11:00:56 51°11.441 2°44.952 11.1 264 10.7 101510 87
2003-03-05 11:01:01 51°11.436 2°44.921 10.5 269 10.7 101510 87
2003-03-05 11:01:07 51°11.431 2°44.884 10.4 268 10.7 101510 87
2003-03-05 11:01:12 51°11.426 2°44.853 10.5 266 10.7 101500 87
2003-03-05 11:01:17 51°11.422 2°44.822 9.8 264 10.7 101500 87
2003-03-05 11:01:22 51°11.417 2°44.791 11.2 267 10.7 101500 87
2003-03-05 11:01:28 51°11.412 2°44.754 11.1 265 10.7 101500 87
2003-03-05 11:01:33 51°11.407 2°44.723 11 265 10.7 101500 87
2003-03-05 11:01:37 51°11.403 2°44.699 11 270 10.7 101500 87
2003-03-05 11:01:43 51°11.398 2°44.662 10.5 266 10.7 101500 87
2003-03-05 11:01:48 51°11.393 2°44.631 10.6 265 10.7 101500 87
2003-03-05 11:01:53 51°11.389 2°44.601 10.5 267 10.7 101510 87
2003-03-05 11:01:57 51°11.385 2°44.576 9.9 265 10.7 101510 87
2003-03-05 11:02:03 51°11.379 2°44.539 10 264 10.7 101500 87
2003-03-05 11:02:08 51°11.375 2°44.508 10.2 263 10.7 101500 87
2003-03-05 11:02:12 51°11.371 2°44.484 10.5 262 10.7 101510 87
2003-03-05 11:02:18 51°11.366 2°44.447 10.9 263 10.7 101510 87
2003-03-05 11:02:23 51°11.361 2°44.417 10.7 264 10.6 101500 87
2003-03-05 11:02:28 51°11.357 2°44.386 11.1 266 10.6 101500 87
2003-03-05 11:02:33 51°11.352 2°44.355 11.5 267 10.6 101500 87
2003-03-05 11:02:37 51°11.348 2°44.331 10.8 266 10.6 101500 87
2003-03-05 11:02:43 51°11.343 2°44.294 10.3 266 10.6 101500 87
2003-03-05 11:02:48 51°11.339 2°44.264 10.8 268 10.6 101500 87
2003-03-05 11:02:52 51°11.335 2°44.239 10.7 266 10.6 101510 87
2003-03-05 11:02:57 51°11.33 2°44.209 10.8 267 10.6 101510 87
2003-03-05 11:03:01 51°11.327 2°44.185 10.9 266 10.6 101500 87
2003-03-05 11:03:08 51°11.32 2°44.142 11.2 267 10.6 101500 87
2003-03-05 11:03:13 51°11.316 2°44.112 11.4 263 10.6 101500 87
2003-03-05 11:03:17 51°11.312 2°44.087 12.2 267 10.6 101500 87
2003-03-05 11:03:23 51°11.307 2°44.051 13 268 10.6 101500 87
2003-03-05 11:03:26 51°11.304 2°44.033 13.1 267 10.6 101500 87
2003-03-05 11:03:33 51°11.296 2°43.991 12.3 268 10.6 101500 87
2003-03-05 11:03:38 51°11.291 2°43.961 11.9 265 10.6 101500 87
2003-03-05 11:03:41 51°11.288 2°43.943 12.4 266 10.6 101500 87
2003-03-05 11:03:47 51°11.281 2°43.907 12.2 265 10.6 101500 87
2003-03-05 11:03:53 51°11.275 2°43.871 12.3 265 10.6 101490 87
2003-03-05 11:03:57 51°11.27 2°43.847 11.5 264 10.6 101490 87
2003-03-05 11:04:01 51°11.266 2°43.823 11.7 264 10.6 101500 87
2003-03-05 11:04:08 51°11.258 2°43.781 11.7 260 10.6 101500 87
2003-03-05 11:04:13 51°11.253 2°43.752 11.5 260 10.6 101500 87
2003-03-05 11:04:17 51°11.248 2°43.728 12.4 263 10.6 101500 87
2003-03-05 11:04:23 51°11.242 2°43.692 11.9 265 10.5 101500 87
2003-03-05 11:04:27 51°11.238 2°43.668 12.3 263 10.5 101500 87
2003-03-05 11:04:33 51°11.231 2°43.632 12.3 264 10.5 101500 87
2003-03-05 11:04:38 51°11.225 2°43.602 12.2 263 10.5 101500 87
2003-03-05 11:04:41 51°11.222 2°43.584 12.1 262 10.5 101500 87
2003-03-05 11:04:45 51°11.218 2°43.561 12.7 265 10.5 101500 87
2003-03-05 11:04:53 51°11.209 2°43.513 12.3 263 10.5 101500 87
2003-03-05 11:04:57 51°11.205 2°43.489 12.5 265 10.5 101500 87
2003-03-05 11:05:03 51°11.198 2°43.454 12.2 264 10.5 101500 87
2003-03-05 11:05:06 51°11.195 2°43.436 12.3 264 10.5 101500 87
2003-03-05 11:05:13 51°11.187 2°43.394 12.2 260 10.5 101500 87
2003-03-05 11:05:17 51°11.183 2°43.37 12.6 264 10.5 101500 87
2003-03-05 11:05:23 51°11.176 2°43.335 12.1 261 10.5 101490 87
2003-03-05 11:05:28 51°11.17 2°43.305 12.2 262 10.5 101490 87
2003-03-05 11:05:33 51°11.165 2°43.275 11.7 260 10.5 101500 87
2003-03-05 11:05:37 51°11.161 2°43.251 11.9 257 10.5 101500 87
2003-03-05 11:05:41 51°11.156 2°43.228 10.5 251 10.5 101500 87
2003-03-05 11:05:48 51°11.149 2°43.186 11 255 10.5 101500 87
2003-03-05 11:05:53 51°11.143 2°43.157 11.2 253 10.5 101500 87
2003-03-05 11:05:57 51°11.139 2°43.133 11.2 255 10.5 101500 87
2003-03-05 11:06:03 51°11.132 2°43.097 11.5 256 10.5 101500 87
2003-03-05 11:06:08 51°11.127 2°43.068 11 254 10.5 101500 87
2003-03-05 11:06:13 51°11.121 2°43.038 11.2 258 10.4 101510 87
2003-03-05 11:06:17 51°11.116 2°43.015 10.8 253 10.4 101510 87
2003-03-05 11:06:23 51°11.11 2°42.979 11 255 10.4 101510 87
2003-03-05 11:06:28 51°11.104 2°42.949 10.3 256 10.4 101510 87
2003-03-05 11:06:33 51°11.099 2°42.92 11.2 254 10.4 101510 87
2003-03-05 11:06:37 51°11.094 2°42.896 11.8 257 10.4 101510 87
2003-03-05 11:06:42 51°11.089 2°42.866 11.2 256 10.4 101510 87
2003-03-05 11:06:48 51°11.082 2°42.831 11.8 255 10.4 101510 87
2003-03-05 11:06:53 51°11.077 2°42.801 12.1 254 10.4 101510 87
2003-03-05 11:06:57 51°11.073 2°42.777 11.6 252 10.4 101510 87
2003-03-05 11:07:03 51°11.066 2°42.742 11.3 252 10.4 101510 87
2003-03-05 11:07:13 51°11.055 2°42.684 11.5 253 10.4 101510 87
2003-03-05 11:07:17 51°11.051 2°42.662 11.1 253 10.4 101510 87
2003-03-05 11:07:23 51°11.045 2°42.63 10.6 254 10.4 101510 87
2003-03-05 11:07:25 51°11.043 2°42.619 10.2 254 10.4 101510 87
2003-03-05 11:07:33 51°11.035 2°42.58 9.5 250 10.4 101510 87
2003-03-05 11:07:37 51°11.032 2°42.561 9.2 251 10.4 101510 87
2003-03-05 11:07:41 51°11.028 2°42.542 9.1 252 10.4 101520 87
2003-03-05 11:07:48 51°11.021 2°42.51 9.4 253 10.4 101520 87
2003-03-05 11:07:52 51°11.018 2°42.492 8.9 250 10.4 101520 87
2003-03-05 11:07:57 51°11.013 2°42.47 9.4 251 10.4 101520 87
2003-03-05 11:08:03 51°11.007 2°42.444 9.1 254 10.3 101520 87
2003-03-05 11:08:07 51°11.004 2°42.426 9.1 258 10.3 101520 87
2003-03-05 11:08:13 51°11 2°42.4 8.6 259 10.3 101520 87
2003-03-05 11:08:17 51°10.999 2°42.383 8.5 261 10.3 101520 87
2003-03-05 11:08:20 51°10.998 2°42.37 8 261 10.3 101520 87
2003-03-05 11:08:28 51°10.997 2°42.336 8.2 267 10.3 101520 87
2003-03-05 11:08:33 51°10.997 2°42.316 7.7 267 10.3 101520 87
2003-03-05 11:08:37 51°10.998 2°42.301 7.2 269 10.3 101520 87
2003-03-05 11:08:41 51°10.999 2°42.286 7 272 10.3 101520 87
2003-03-05 11:08:48 51°11.002 2°42.26 6.7 269 10.3 101520 87
2003-03-05 11:08:53 51°11.004 2°42.242 6.2 270 10.3 101520 87
2003-03-05 11:08:57 51°11.006 2°42.228 6.8 271 10.3 101520 87
2003-03-05 11:09:03 51°11.008 2°42.207 6.9 275 10.3 101530 87
2003-03-05 11:09:08 51°11.011 2°42.19 6.1 275 10.3 101530 87
2003-03-05 11:09:13 51°11.013 2°42.173 5.9 282 10.3 101530 87
2003-03-05 11:09:17 51°11.015 2°42.161 5.5 281 10.3 101530 87
2003-03-05 11:09:23 51°11.019 2°42.143 4.8 284 10.3 101530 87
2003-03-05 11:09:28 51°11.022 2°42.129 4.4 288 10.3 101530 87
2003-03-05 11:09:33 51°11.026 2°42.117 5.3 296 10.3 101530 87
2003-03-05 11:09:37 51°11.029 2°42.109 5 301 10.3 101530 87
2003-03-05 11:09:43 51°11.034 2°42.098 4.5 304 10.3 101530 87
2003-03-05 11:09:48 51°11.039 2°42.089 4.2 313 10.3 101530 87
2003-03-05 11:09:53 51°11.043 2°42.081 2.4 315 10.3 101530 87
2003-03-05 11:09:57 51°11.047 2°42.075 2 304 10.3 101530 87
2003-03-05 11:10:01 51°11.05 2°42.071 1.3 326 10.3 101540 87
2003-03-05 11:10:06 51°11.055 2°42.065 1.2 328 10.3 101540 87
2003-03-05 11:10:13 51°11.061 2°42.058 2.1 342 10.3 101530 87
2003-03-05 11:10:17 51°11.065 2°42.055 2.6 352 10.3 101530 87
2003-03-05 11:10:23 51°11.07 2°42.051 2.4 350 10.3 101530 87
2003-03-05 11:10:28 51°11.074 2°42.048 3.2 358 10.3 101530 87
2003-03-05 11:10:33 51°11.077 2°42.045 3.2 6 10.3 101540 87
2003-03-05 11:10:37 51°11.08 2°42.044 3.8 10 10.3 101540 87
2003-03-05 11:10:43 51°11.084 2°42.042 3.3 5 10.3 101540 87
2003-03-05 11:10:47 51°11.086 2°42.041 3.4 10 10.3 101540 87
2003-03-05 11:10:53 51°11.089 2°42.039 3.7 13 10.2 101540 87
2003-03-05 11:10:57 51°11.092 2°42.038 3.7 17 10.2 101540 87
2003-03-05 11:11:03 51°11.095 2°42.037 3.4 20 10.2 101540 87
2003-03-05 11:11:05 51°11.097 2°42.037 3.2 22 10.2 101540 87
2003-03-05 11:11:13 51°11.101 2°42.036 3.3 29 10.3 101540 87
2003-03-05 11:11:17 51°11.103 2°42.035 3.1 26 10.3 101540 87
2003-03-05 11:11:21 51°11.105 2°42.035 3.3 30 10.2 101540 87
2003-03-05 11:11:28 51°11.109 2°42.034 3.1 28 10.2 101540 87
2003-03-05 11:11:33 51°11.112 2°42.034 3.5 28 10.3 101540 87
2003-03-05 11:11:37 51°11.114 2°42.034 3.4 28 10.3 101540 87
2003-03-05 11:11:43 51°11.116 2°42.034 3.5 32 10.2 101540 87
2003-03-05 11:11:48 51°11.118 2°42.034 3.5 29 10.2 101540 87
2003-03-05 11:11:52 51°11.12 2°42.035 4 26 10.2 101530 87
2003-03-05 11:11:58 51°11.122 2°42.035 4.4 25 10.2 101530 87
2003-03-05 11:12:01 51°11.123 2°42.035 4.1 22 10.2 101530 87
2003-03-05 11:12:05 51°11.124 2°42.035 4.1 24 10.2 101530 87
2003-03-05 11:12:15 51°11.127 2°42.034 4 24 10.2 101540 87
2003-03-05 11:12:20 51°11.129 2°42.034 3.9 26 10.2 101540 87
2003-03-05 11:12:25 51°11.13 2°42.034 4 26 10.2 101530 87
2003-03-05 11:12:28 51°11.131 2°42.034 4.3 30 10.2 101530 87
2003-03-05 11:12:35 51°11.133 2°42.034 4.2 30 10.2 101530 87
2003-03-05 11:12:37 51°11.134 2°42.034 4.4 26 10.2 101530 87
2003-03-05 11:12:45 51°11.136 2°42.034 4.3 28 10.2 101530 87
2003-03-05 11:12:49 51°11.137 2°42.034 4.3 27 10.2 101530 87
2003-03-05 11:12:54 51°11.138 2°42.033 4.4 26 10.2 101530 88
2003-03-05 11:13:00 51°11.139 2°42.033 4.5 29 10.2 101530 88
2003-03-05 11:13:05 51°11.141 2°42.033 4.3 30 10.2 101530 88
2003-03-05 11:13:09 51°11.142 2°42.033 4 27 10.2 101530 88
2003-03-05 11:13:15 51°11.143 2°42.033 4.3 26 10.3 101530 88
2003-03-05 11:13:20 51°11.144 2°42.032 4.2 28 10.3 101530 88
2003-03-05 11:13:24 51°11.145 2°42.032 4 27 10.3 101530 88
2003-03-05 11:13:29 51°11.146 2°42.032 4.2 26 10.3 101530 88
2003-03-05 11:13:32 51°11.147 2°42.032 4.3 25 10.3 101520 88
2003-03-05 11:13:40 51°11.149 2°42.032 4 27 10.3 101520 88
2003-03-05 11:13:45 51°11.15 2°42.031 4.3 26 10.3 101530 88
2003-03-05 11:13:49 51°11.151 2°42.031 4.3 27 10.3 101530 88
2003-03-05 11:13:55 51°11.152 2°42.031 4.5 28 10.3 101530 88
2003-03-05 11:13:57 51°11.152 2°42.031 4.3 29 10.3 101530 88
2003-03-05 11:14:05 51°11.154 2°42.03 4.3 28 10.3 101530 88
2003-03-05 11:14:09 51°11.155 2°42.03 4.4 26 10.3 101530 88
2003-03-05 11:14:15 51°11.156 2°42.03 4.4 27 10.3 101530 88
2003-03-05 11:14:20 51°11.157 2°42.03 4.6 24 10.3 101530 88
2003-03-05 11:14:25 51°11.159 2°42.029 4.4 28 10.3 101530 88
2003-03-05 11:14:29 51°11.16 2°42.029 4.5 24 10.3 101530 88
2003-03-05 11:14:33 51°11.16 2°42.029 4.4 26 10.3 101530 88
2003-03-05 11:14:36 51°11.161 2°42.029 4.4 26 10.3 101530 88
2003-03-05 11:14:45 51°11.163 2°42.029 4.5 24 10.3 101530 88
2003-03-05 11:14:49 51°11.164 2°42.028 4.8 21 10.3 101530 88
2003-03-05 11:14:54 51°11.165 2°42.028 4.7 23 10.3 101530 88
2003-03-05 11:15:00 51°11.166 2°42.028 4.9 22 10.3 101530 88
2003-03-05 11:15:05 51°11.167 2°42.027 4.6 24 10.3 101530 88
2003-03-05 11:15:09 51°11.168 2°42.027 4.6 23 10.3 101530 88
2003-03-05 11:15:13 51°11.169 2°42.027 4.8 24 10.3 101530 88
2003-03-05 11:15:20 51°11.171 2°42.026 5 24 10.3 101530 88
2003-03-05 11:15:25 51°11.172 2°42.026 4.9 22 10.4 101530 88
2003-03-05 11:15:29 51°11.172 2°42.026 5.5 20 10.4 101530 88
2003-03-05 11:15:35 51°11.174 2°42.025 5.3 21 10.4 101520 88
2003-03-05 11:15:40 51°11.175 2°42.025 5.3 22 10.4 101520 88
2003-03-05 11:15:45 51°11.175 2°42.024 5.1 20 10.3 101530 88
2003-03-05 11:15:49 51°11.176 2°42.024 5.7 19 10.3 101530 88
2003-03-05 11:15:55 51°11.178 2°42.024 5.4 15 10.4 101520 88
2003-03-05 11:16:00 51°11.179 2°42.023 5.6 18 10.4 101520 88
2003-03-05 11:16:05 51°11.18 2°42.023 5.6 22 10.5 101530 88
2003-03-05 11:16:09 51°11.181 2°42.022 5.5 16 10.5 101530 88
2003-03-05 11:16:15 51°11.182 2°42.022 5.4 20 10.5 101520 88
2003-03-05 11:16:20 51°11.183 2°42.021 5.5 15 10.5 101520 88
2003-03-05 11:16:25 51°11.184 2°42.021 5.5 13 10.5 101520 88
2003-03-05 11:16:30 51°11.185 2°42.02 5.3 8 10.5 101520 88
2003-03-05 11:16:33 51°11.186 2°42.02 5.4 11 10.5 101530 88
2003-03-05 11:16:37 51°11.187 2°42.019 5.2 11 10.5 101530 88
2003-03-05 11:16:45 51°11.188 2°42.018 5.2 8 10.5 101520 88
2003-03-05 11:16:49 51°11.189 2°42.018 4.9 9 10.5 101520 88
2003-03-05 11:16:55 51°11.19 2°42.017 5.1 7 10.5 101530 88
2003-03-05 11:17:00 51°11.192 2°42.017 4.3 5 10.5 101530 88
2003-03-05 11:17:05 51°11.193 2°42.016 5 360 10.5 101520 88
2003-03-05 11:17:10 51°11.194 2°42.014 4.9 353 10.5 101520 88
2003-03-05 11:17:13 51°11.195 2°42.012 4.1 345 10.5 101520 88
2003-03-05 11:17:20 51°11.198 2°42.008 1.3 325 10.5 101520 88
2003-03-05 11:17:25 51°11.201 2°42.003 1.2 328 10.5 101530 88
2003-03-05 11:17:29 51°11.202 2°41.998 1.3 324 10.5 101530 88
2003-03-05 11:17:33 51°11.204 2°41.993 2.2 310 10.5 101520 88
2003-03-05 11:17:40 51°11.206 2°41.982 4.8 306 10.5 101520 88
2003-03-05 11:17:45 51°11.207 2°41.973 5.8 301 10.4 101520 88
2003-03-05 11:17:49 51°11.207 2°41.965 6.8 297 10.4 101520 88
2003-03-05 11:17:52 51°11.207 2°41.959 6.5 293 10.4 101520 88
2003-03-05 11:18:00 51°11.207 2°41.942 6.8 289 10.4 101520 88
2003-03-05 11:18:05 51°11.206 2°41.931 7.2 283 10.4 101520 88
2003-03-05 11:18:07 51°11.205 2°41.927 7.6 279 10.4 101520 88
2003-03-05 11:18:15 51°11.201 2°41.908 7.8 278 10.4 101520 88
2003-03-05 11:18:20 51°11.198 2°41.897 8.1 274 10.4 101520 88
2003-03-05 11:18:25 51°11.194 2°41.884 8.3 274 10.3 101520 88
2003-03-05 11:18:29 51°11.19 2°41.873 8.7 271 10.3 101520 88
2003-03-05 11:18:33 51°11.186 2°41.86 8.9 267 10.3 101520 88
2003-03-05 11:18:37 51°11.181 2°41.847 9.8 262 10.3 101520 88
2003-03-05 11:18:45 51°11.169 2°41.817 10.1 262 10.3 101520 88
2003-03-05 11:18:49 51°11.163 2°41.8 10.5 259 10.3 101520 88
2003-03-05 11:18:55 51°11.153 2°41.773 10.8 258 10.3 101510 88
2003-03-05 11:19:00 51°11.144 2°41.75 11.6 257 10.3 101510 88
2003-03-05 11:19:05 51°11.135 2°41.727 11.2 257 10.3 101500 88
2003-03-05 11:19:09 51°11.127 2°41.708 11.3 256 10.3 101500 88
2003-03-05 11:19:15 51°11.116 2°41.679 11.4 255 10.3 101500 88
2003-03-05 11:19:20 51°11.106 2°41.655 11.3 256 10.3 101500 88
2003-03-05 11:19:25 51°11.096 2°41.63 12 260 10.3 101500 88
2003-03-05 11:19:29 51°11.088 2°41.61 11.2 256 10.3 101500 88
2003-03-05 11:19:35 51°11.076 2°41.579 11.7 255 10.3 101490 87
2003-03-05 11:19:40 51°11.066 2°41.553 11.2 256 10.3 101490 87
2003-03-05 11:19:45 51°11.057 2°41.527 11.1 256 10.2 101490 88
2003-03-05 11:19:49 51°11.049 2°41.507 11.3 256 10.2 101490 88
2003-03-05 11:19:52 51°11.043 2°41.491 11.4 254 10.2 101490 87
2003-03-05 11:20:00 51°11.028 2°41.449 11.7 255 10.2 101490 87
2003-03-05 11:20:04 51°11.02 2°41.428 11.5 256 10.2 101500 87
2003-03-05 11:20:10 51°11.009 2°41.397 11.3 256 10.2 101500 87
2003-03-05 11:20:13 51°11.003 2°41.381 10.8 255 10.2 101500 87
2003-03-05 11:20:19 51°10.991 2°41.35 11.2 254 10.2 101500 87
2003-03-05 11:20:25 51°10.98 2°41.318 11.1 253 10.2 101490 87
2003-03-05 11:20:29 51°10.972 2°41.297 11.6 252 10.2 101490 87
2003-03-05 11:20:35 51°10.96 2°41.266 11.2 253 10.2 101490 87
2003-03-05 11:20:40 51°10.951 2°41.239 11.4 252 10.2 101490 87
2003-03-05 11:20:45 51°10.941 2°41.213 11.4 254 10.1 101490 88
2003-03-05 11:20:49 51°10.933 2°41.192 11.7 254 10.1 101490 88
2003-03-05 11:20:53 51°10.926 2°41.171 11.6 253 10.2 101490 88
2003-03-05 11:21:00 51°10.912 2°41.134 11.2 252 10.2 101490 88
2003-03-05 11:21:05 51°10.902 2°41.108 11.4 252 10.1 101500 88
2003-03-05 11:21:08 51°10.896 2°41.092 11.1 253 10.1 101500 88
2003-03-05 11:21:13 51°10.887 2°41.066 11.2 254 10.1 101490 88
2003-03-05 11:21:20 51°10.873 2°41.028 11.5 253 10.1 101490 88
2003-03-05 11:21:25 51°10.863 2°41.002 11.2 253 10.1 101490 88
2003-03-05 11:21:30 51°10.854 2°40.976 11.5 253 10.1 101490 88
2003-03-05 11:21:33 51°10.848 2°40.96 11.7 252 10.1 101500 88
2003-03-05 11:21:37 51°10.84 2°40.939 11.7 253 10.1 101500 88
2003-03-05 11:21:45 51°10.825 2°40.897 11.5 254 10.1 101490 88
2003-03-05 11:21:49 51°10.817 2°40.875 11.7 253 10.1 101490 88
2003-03-05 11:21:55 51°10.805 2°40.844 11.7 255 10.1 101500 88
2003-03-05 11:22:00 51°10.795 2°40.817 11.7 255 10.1 101500 88
2003-03-05 11:22:05 51°10.785 2°40.791 11.7 255 10.1 101490 88
2003-03-05 11:22:09 51°10.778 2°40.77 11.8 255 10.1 101490 88
2003-03-05 11:22:15 51°10.766 2°40.738 11.6 255 10.1 101490 88
2003-03-05 11:22:20 51°10.756 2°40.712 11.6 252 10.1 101490 88
2003-03-05 11:22:25 51°10.747 2°40.686 11.6 252 10.1 101490 88
2003-03-05 11:22:29 51°10.739 2°40.664 11.5 252 10.1 101490 88
2003-03-05 11:22:35 51°10.728 2°40.633 12.1 254 10.1 101490 88
2003-03-05 11:22:39 51°10.72 2°40.612 11.7 252 10.1 101490 88
2003-03-05 11:22:45 51°10.708 2°40.58 11.6 254 10.1 101490 88
2003-03-05 11:22:49 51°10.701 2°40.559 11.1 251 10.1 101490 88
2003-03-05 11:22:55 51°10.689 2°40.527 11.4 252 10.1 101490 88
2003-03-05 11:23:00 51°10.68 2°40.501 12 252 10.1 101490 88
2003-03-05 11:23:05 51°10.67 2°40.474 12.1 254 10.2 101490 88
2003-03-05 11:23:09 51°10.662 2°40.453 12 253 10.2 101490 88
2003-03-05 11:23:13 51°10.655 2°40.432 12.2 254 10.2 101490 88
2003-03-05 11:23:20 51°10.641 2°40.395 12.3 255 10.2 101490 88
2003-03-05 11:23:25 51°10.632 2°40.369 11.4 252 10.2 101490 88
2003-03-05 11:23:29 51°10.625 2°40.348 11.6 255 10.2 101490 88
2003-03-05 11:23:35 51°10.613 2°40.317 12.3 255 10.2 101480 88
2003-03-05 11:23:40 51°10.604 2°40.29 11.9 254 10.2 101480 88
2003-03-05 11:23:45 51°10.594 2°40.264 12.2 252 10.2 101490 88
2003-03-05 11:23:49 51°10.587 2°40.243 13.3 254 10.2 101490 88
2003-03-05 11:23:55 51°10.575 2°40.211 12.2 255 10.2 101490 88
2003-03-05 11:24:00 51°10.566 2°40.184 12.6 254 10.2 101490 88
2003-03-05 11:24:05 51°10.556 2°40.158 12.4 254 10.2 101490 88
2003-03-05 11:24:09 51°10.548 2°40.137 12 250 10.2 101490 88
2003-03-05 11:24:13 51°10.541 2°40.116 11.4 252 10.2 101490 88
2003-03-05 11:24:20 51°10.527 2°40.079 12.1 246 10.2 101490 88
2003-03-05 11:24:25 51°10.518 2°40.053 11.8 250 10.2 101480 88
2003-03-05 11:24:29 51°10.51 2°40.032 12.4 256 10.2 101480 88
2003-03-05 11:24:35 51°10.499 2°40 11.9 254 10.2 101490 88
2003-03-05 11:24:40 51°10.489 2°39.974 12.2 257 10.2 101490 88
2003-03-05 11:24:45 51°10.48 2°39.947 11.7 256 10.3 101490 88
2003-03-05 11:24:49 51°10.472 2°39.926 11.1 252 10.3 101490 88
2003-03-05 11:24:55 51°10.461 2°39.894 11.1 251 10.3 101490 88
2003-03-05 11:25:00 51°10.452 2°39.868 11.1 254 10.3 101490 88
2003-03-05 11:25:05 51°10.442 2°39.842 11.3 253 10.3 101480 88
2003-03-05 11:25:09 51°10.434 2°39.821 11.7 252 10.3 101480 88
2003-03-05 11:25:15 51°10.423 2°39.789 11.4 254 10.3 101480 88
2003-03-05 11:25:20 51°10.413 2°39.763 11.5 252 10.3 101480 88
2003-03-05 11:25:25 51°10.404 2°39.737 11.6 253 10.3 101480 88
2003-03-05 11:25:30 51°10.394 2°39.71 11.8 255 10.3 101480 88
2003-03-05 11:25:33 51°10.388 2°39.694 11.7 256 10.3 101490 88
2003-03-05 11:25:40 51°10.375 2°39.658 11.8 253 10.3 101490 88
2003-03-05 11:25:45 51°10.366 2°39.631 11.8 255 10.3 101480 88
2003-03-05 11:25:50 51°10.356 2°39.605 11.4 254 10.3 101480 88
2003-03-05 11:25:53 51°10.35 2°39.589 11 254 10.3 101480 88
2003-03-05 11:26:00 51°10.337 2°39.552 11.4 255 10.3 101480 88
2003-03-05 11:26:05 51°10.328 2°39.525 11.5 255 10.3 101480 88
2003-03-05 11:26:09 51°10.321 2°39.504 11.8 255 10.3 101480 88
2003-03-05 11:26:12 51°10.316 2°39.488 11.4 256 10.3 101480 88
2003-03-05 11:26:19 51°10.303 2°39.451 11.3 258 10.3 101480 88
2003-03-05 11:26:25 51°10.292 2°39.419 11 256 10.3 101480 88
2003-03-05 11:26:29 51°10.284 2°39.398 10.8 258 10.3 101480 88
2003-03-05 11:26:35 51°10.274 2°39.368 10.8 258 10.3 101480 88
2003-03-05 11:26:40 51°10.265 2°39.343 10.3 257 10.3 101480 88
2003-03-05 11:26:45 51°10.257 2°39.32 10.2 258 10.3 101480 88
2003-03-05 11:26:49 51°10.251 2°39.301 10.2 258 10.3 101480 88
2003-03-05 11:26:55 51°10.242 2°39.273 10.1 259 10.3 101490 88
2003-03-05 11:27:00 51°10.235 2°39.251 10.2 261 10.3 101490 88
2003-03-05 11:27:05 51°10.228 2°39.228 9.2 261 10.3 101480 88
2003-03-05 11:27:09 51°10.224 2°39.21 8.6 262 10.3 101480 88
2003-03-05 11:27:13 51°10.22 2°39.193 8.5 260 10.3 101490 88
2003-03-05 11:27:16 51°10.217 2°39.18 8.8 262 10.3 101490 88
2003-03-05 11:27:25 51°10.208 2°39.144 8.5 261 10.3 101490 88
2003-03-05 11:27:29 51°10.203 2°39.129 8.2 265 10.3 101490 88
2003-03-05 11:27:33 51°10.199 2°39.115 8.3 265 10.3 101490 88
2003-03-05 11:27:40 51°10.193 2°39.09 8.4 267 10.3 101490 88
2003-03-05 11:27:45 51°10.188 2°39.072 8.4 268 10.3 101490 88
2003-03-05 11:27:50 51°10.183 2°39.056 8.3 268 10.3 101490 88
2003-03-05 11:27:54 51°10.18 2°39.043 8 269 10.3 101490 88
2003-03-05 11:28:00 51°10.175 2°39.024 7.6 269 10.3 101490 88
2003-03-05 11:28:05 51°10.172 2°39.008 7.5 271 10.3 101500 88
2003-03-05 11:28:10 51°10.168 2°38.994 7.5 274 10.3 101500 88
2003-03-05 11:28:15 51°10.165 2°38.98 7.6 271 10.3 101490 88
2003-03-05 11:28:20 51°10.163 2°38.966 7.5 278 10.3 101490 88
2003-03-05 11:28:25 51°10.16 2°38.953 7.7 276 10.3 101490 88
2003-03-05 11:28:29 51°10.158 2°38.943 7.6 275 10.3 101490 88
2003-03-05 11:28:35 51°10.155 2°38.929 7.3 275 10.3 101500 88
2003-03-05 11:28:40 51°10.152 2°38.917 7.1 275 10.3 101500 88
2003-03-05 11:28:45 51°10.15 2°38.905 7 272 10.3 101500 88
2003-03-05 11:28:49 51°10.148 2°38.896 6.8 272 10.3 101500 88
2003-03-05 11:28:52 51°10.146 2°38.889 7.1 273 10.3 101500 88
2003-03-05 11:29:00 51°10.142 2°38.872 6.9 274 10.3 101500 88
2003-03-05 11:29:05 51°10.14 2°38.862 7.1 273 10.3 101500 88
2003-03-05 11:29:07 51°10.138 2°38.858 7 273 10.3 101500 88
2003-03-05 11:29:15 51°10.134 2°38.843 7.2 275 10.3 101490 88
2003-03-05 11:29:20 51°10.131 2°38.834 6.6 274 10.3 101490 88
2003-03-05 11:29:25 51°10.129 2°38.827 6.4 280 10.3 101500 88
2003-03-05 11:29:29 51°10.128 2°38.822 6.3 281 10.3 101500 88
2003-03-05 11:29:35 51°10.126 2°38.817 5.9 279 10.3 101500 88
2003-03-05 11:29:40 51°10.125 2°38.814 5.4 284 10.3 101500 88
2003-03-05 11:29:45 51°10.124 2°38.812 5.3 283 10.3 101500 88
2003-03-05 11:29:47 51°10.124 2°38.812 5.1 286 10.3 101500 88
2003-03-05 11:29:56 51°10.124 2°38.81 5.5 285 10.3 101500 88
2003-03-05 11:30:01 51°10.124 2°38.81 5.2 284 10.3 101500 88
2003-03-05 11:30:05 51°10.124 2°38.809 5 283 10.3 101500 88
2003-03-05 11:30:09 51°10.123 2°38.809 5.2 286 10.3 101500 88
2003-03-05 11:30:16 51°10.123 2°38.808 5.2 286 10.3 101500 88
2003-03-05 11:30:21 51°10.123 2°38.808 5.6 291 10.3 101500 88
2003-03-05 11:30:26 51°10.123 2°38.807 5.6 289 10.3 101500 88
2003-03-05 11:30:29 51°10.122 2°38.807 6 292 10.3 101500 88
2003-03-05 11:30:36 51°10.122 2°38.806 5.7 293 10.3 101500 88
2003-03-05 11:30:41 51°10.122 2°38.805 5.1 291 10.3 101500 88
2003-03-05 11:30:45 51°10.122 2°38.805 5.8 294 10.4 101500 88
2003-03-05 11:30:51 51°10.121 2°38.804 5.7 292 10.4 101500 88
2003-03-05 11:30:56 51°10.121 2°38.804 5.4 293 10.4 101500 88
2003-03-05 11:31:01 51°10.121 2°38.803 5.3 290 10.4 101500 88
2003-03-05 11:31:05 51°10.121 2°38.803 5.5 290 10.4 101500 88
2003-03-05 11:31:09 51°10.121 2°38.802 5.2 297 10.4 101500 88
2003-03-05 11:31:13 51°10.121 2°38.802 5.2 295 10.4 101500 88
2003-03-05 11:31:21 51°10.121 2°38.802 5.6 296 10.4 101500 88
2003-03-05 11:31:25 51°10.121 2°38.801 5.2 292 10.4 101500 88
2003-03-05 11:31:31 51°10.121 2°38.801 5.2 297 10.4 101500 88
2003-03-05 11:31:36 51°10.121 2°38.8 5.2 298 10.4 101500 88
2003-03-05 11:31:40 51°10.121 2°38.8 5.2 298 10.4 101500 88
2003-03-05 11:31:45 51°10.121 2°38.799 4.9 298 10.5 101500 89
2003-03-05 11:31:51 51°10.121 2°38.799 5.7 294 10.5 101500 89
2003-03-05 11:31:56 51°10.121 2°38.799 5.7 301 10.5 101500 89
2003-03-05 11:32:01 51°10.121 2°38.798 5.9 300 10.5 101500 89
2003-03-05 11:32:05 51°10.121 2°38.798 5.5 297 10.5 101500 89
2003-03-05 11:32:11 51°10.121 2°38.798 5.1 303 10.5 101500 89
2003-03-05 11:32:16 51°10.121 2°38.797 5.4 297 10.5 101500 89
2003-03-05 11:32:21 51°10.121 2°38.797 4.8 304 10.5 101500 89
2003-03-05 11:32:25 51°10.121 2°38.797 5.4 302 10.5 101490 89
2003-03-05 11:32:31 51°10.121 2°38.796 5.3 298 10.5 101490 89
2003-03-05 11:32:36 51°10.121 2°38.796 4.8 303 10.5 101500 88
2003-03-05 11:32:49 51°10.121 2°38.794 5.1 298 10.5 101500 88
2003-03-05 11:32:53 51°10.121 2°38.794 5.1 298 10.6 101500 89
2003-03-05 11:32:59 51°10.121 2°38.794 5.2 296 10.6 101500 89
2003-03-05 11:33:01 51°10.121 2°38.793 5 296 10.6 101500 88
2003-03-05 11:33:09 51°10.121 2°38.793 5.1 299 10.6 101500 88
2003-03-05 11:33:13 51°10.121 2°38.792 5.2 299 10.5 101500 88
2003-03-05 11:33:17 51°10.121 2°38.792 5.1 300 10.5 101500 88
2003-03-05 11:33:23 51°10.121 2°38.791 5.2 299 10.5 101500 88
2003-03-05 11:33:29 51°10.121 2°38.791 5.1 299 10.5 101500 88
2003-03-05 11:33:33 51°10.121 2°38.79 5.1 300 10.5 101500 88
2003-03-05 11:33:38 51°10.121 2°38.79 5.1 300 10.5 101500 88
2003-03-05 11:33:42 51°10.121 2°38.79 5 301 10.5 101500 88
2003-03-05 11:33:48 51°10.121 2°38.79 5.5 294 10.5 101500 88
2003-03-05 11:33:53 51°10.121 2°38.79 5.3 295 10.5 101500 88
2003-03-05 11:33:57 51°10.121 2°38.789 5.4 297 10.5 101500 88
2003-03-05 11:34:04 51°10.121 2°38.789 5.2 297 10.5 101500 88
2003-03-05 11:34:09 51°10.121 2°38.789 5.2 297 10.5 101500 88
2003-03-05 11:34:13 51°10.121 2°38.789 5.2 295 10.5 101500 88
2003-03-05 11:34:19 51°10.121 2°38.789 5.2 296 10.5 101500 88
2003-03-05 11:34:23 51°10.121 2°38.789 5.1 294 10.5 101500 88
2003-03-05 11:34:29 51°10.121 2°38.789 5.4 295 10.5 101500 88
2003-03-05 11:34:33 51°10.121 2°38.788 5.3 295 10.5 101500 88
2003-03-05 11:34:39 51°10.121 2°38.788 5.1 295 10.5 101500 88
2003-03-05 11:34:43 51°10.121 2°38.787 5.3 297 10.5 101500 88
2003-03-05 11:34:49 51°10.121 2°38.787 4.9 294 10.5 101500 88
2003-03-05 11:34:53 51°10.121 2°38.787 5.1 293 10.5 101500 88
2003-03-05 11:34:59 51°10.121 2°38.787 5.3 295 10.5 101500 88
2003-03-05 11:35:04 51°10.121 2°38.787 5.1 296 10.5 101500 88
2003-03-05 11:35:09 51°10.121 2°38.787 5.3 298 10.5 101500 88
2003-03-05 11:35:13 51°10.121 2°38.786 5.3 298 10.5 101500 88
2003-03-05 11:35:17 51°10.121 2°38.786 5.4 297 10.5 101500 88
2003-03-05 11:35:24 51°10.121 2°38.785 5 296 10.5 101500 88
2003-03-05 11:35:29 51°10.12 2°38.784 5.3 289 10.5 101500 88
2003-03-05 11:35:33 51°10.12 2°38.782 5.6 284 10.6 101500 88
2003-03-05 11:35:39 51°10.118 2°38.776 6.3 277 10.6 101500 88
2003-03-05 11:35:43 51°10.116 2°38.77 6.7 274 10.6 101500 88
2003-03-05 11:35:48 51°10.113 2°38.76 7.4 269 10.6 101500 88
2003-03-05 11:36:00 51°10.102 2°38.731 8 265 10.6 101500 88
2003-03-05 11:36:05 51°10.097 2°38.716 8.1 263 10.6 101490 88
2003-03-05 11:36:10 51°10.091 2°38.701 9.1 262 10.6 101490 88
2003-03-05 11:36:14 51°10.086 2°38.687 9.1 261 10.6 101490 88
2003-03-05 11:36:20 51°10.078 2°38.665 8.8 258 10.6 101490 88
2003-03-05 11:36:25 51°10.071 2°38.646 9.1 257 10.6 101480 88
2003-03-05 11:36:30 51°10.063 2°38.626 9.3 259 10.6 101480 88
2003-03-05 11:36:33 51°10.058 2°38.614 10.1 260 10.6 101480 88
2003-03-05 11:36:37 51°10.052 2°38.597 10.5 257 10.6 101480 88
2003-03-05 11:36:45 51°10.039 2°38.561 10.8 257 10.6 101480 88
2003-03-05 11:36:48 51°10.033 2°38.547 11 256 10.6 101480 88
2003-03-05 11:36:52 51°10.026 2°38.528 10.6 252 10.6 101480 88
2003-03-05 11:37:00 51°10.011 2°38.489 11 255 10.6 101480 88
2003-03-05 11:37:05 51°10.002 2°38.465 11.1 252 10.6 101470 88
2003-03-05 11:37:09 51°9.995 2°38.446 10.9 255 10.6 101470 88
2003-03-05 11:37:13 51°9.987 2°38.426 11.2 254 10.6 101470 88
2003-03-05 11:37:20 51°9.975 2°38.39 10.9 255 10.6 101470 88
2003-03-05 11:37:25 51°9.966 2°38.365 11.2 254 10.6 101470 88
2003-03-05 11:37:29 51°9.959 2°38.345 10.4 257 10.6 101470 88
2003-03-05 11:37:33 51°9.952 2°38.325 11.3 258 10.6 101470 88
2003-03-05 11:37:40 51°9.94 2°38.289 11.9 256 10.6 101470 88
2003-03-05 11:37:45 51°9.932 2°38.263 11.6 253 10.6 101470 88
2003-03-05 11:37:49 51°9.925 2°38.242 11.7 255 10.6 101470 88
2003-03-05 11:37:55 51°9.914 2°38.212 11.9 254 10.6 101470 88
2003-03-05 11:38:00 51°9.904 2°38.187 11.4 253 10.6 101470 88
2003-03-05 11:38:05 51°9.894 2°38.163 12.1 255 10.6 101470 88
2003-03-05 11:38:09 51°9.886 2°38.144 11.5 255 10.6 101470 88
2003-03-05 11:38:15 51°9.874 2°38.114 11.3 258 10.6 101470 88
2003-03-05 11:38:20 51°9.864 2°38.09 11.2 256 10.6 101470 88
2003-03-05 11:38:25 51°9.854 2°38.065 11.3 256 10.6 101460 88
2003-03-05 11:38:29 51°9.847 2°38.045 11.5 255 10.6 101460 88
2003-03-05 11:38:39 51°9.827 2°37.995 11.3 256 10.6 101470 88
2003-03-05 11:38:44 51°9.818 2°37.97 11.4 255 10.6 101470 88
2003-03-05 11:38:53 51°9.801 2°37.925 11.5 258 10.6 101470 88
2003-03-05 11:38:57 51°9.794 2°37.905 11.4 258 10.6 101470 88
2003-03-05 11:39:03 51°9.784 2°37.874 10.9 256 10.6 101470 88
2003-03-05 11:39:07 51°9.777 2°37.853 11 257 10.6 101470 88
2003-03-05 11:39:13 51°9.767 2°37.823 11.2 256 10.6 101460 88
2003-03-05 11:39:17 51°9.76 2°37.802 11.3 255 10.6 101460 88
2003-03-05 11:39:23 51°9.75 2°37.771 11.7 256 10.6 101470 88
2003-03-05 11:39:27 51°9.743 2°37.751 11.9 260 10.6 101470 88
2003-03-05 11:39:33 51°9.733 2°37.72 11.4 258 10.6 101470 88
2003-03-05 11:39:37 51°9.727 2°37.699 11.6 258 10.6 101470 88
2003-03-05 11:39:43 51°9.717 2°37.668 11.3 259 10.7 101460 88
2003-03-05 11:39:48 51°9.709 2°37.642 11 256 10.7 101460 88
2003-03-05 11:39:53 51°9.701 2°37.616 11.1 257 10.7 101460 88
2003-03-05 11:39:57 51°9.694 2°37.595 11.1 256 10.7 101460 88
2003-03-05 11:40:03 51°9.684 2°37.564 11.4 255 10.7 101460 88
2003-03-05 11:40:08 51°9.675 2°37.539 11.3 256 10.7 101460 88
2003-03-05 11:40:12 51°9.668 2°37.519 10.7 255 10.7 101460 88
2003-03-05 11:40:17 51°9.658 2°37.494 11.3 256 10.7 101460 88
2003-03-05 11:40:21 51°9.651 2°37.474 10.7 256 10.7 101460 88
2003-03-05 11:40:28 51°9.638 2°37.439 10.3 254 10.7 101460 88
2003-03-05 11:40:33 51°9.629 2°37.414 11.1 258 10.7 101470 88
2003-03-05 11:40:37 51°9.622 2°37.394 10.9 258 10.7 101470 88
2003-03-05 11:40:43 51°9.611 2°37.364 11.2 260 10.7 101460 88
2003-03-05 11:40:45 51°9.607 2°37.354 10.7 257 10.7 101460 88
2003-03-05 11:40:53 51°9.592 2°37.314 10.6 257 10.7 101470 88
2003-03-05 11:40:58 51°9.583 2°37.289 10.2 258 10.7 101470 88
2003-03-05 11:41:03 51°9.574 2°37.264 10.4 258 10.7 101470 88
2003-03-05 11:41:08 51°9.566 2°37.238 10.8 256 10.7 101470 88
2003-03-05 11:41:13 51°9.558 2°37.213 10 255 10.7 101470 88
2003-03-05 11:41:16 51°9.552 2°37.197 11.1 258 10.7 101470 88
2003-03-05 11:41:23 51°9.539 2°37.162 11.4 260 10.6 101470 88
2003-03-05 11:41:28 51°9.53 2°37.137 10.9 262 10.6 101470 88
2003-03-05 11:41:33 51°9.521 2°37.112 10.4 264 10.7 101470 88
2003-03-05 11:41:37 51°9.514 2°37.092 10.1 263 10.7 101470 88
2003-03-05 11:41:43 51°9.503 2°37.061 10.5 259 10.7 101470 88
2003-03-05 11:41:45 51°9.5 2°37.051 10.5 260 10.7 101470 88
2003-03-05 11:41:53 51°9.487 2°37.009 10.4 264 10.6 101460 88
2003-03-05 11:41:58 51°9.48 2°36.983 10.9 261 10.6 101460 88
2003-03-05 11:42:01 51°9.475 2°36.967 10.8 260 10.6 101470 88
2003-03-05 11:42:08 51°9.464 2°36.93 11 260 10.6 101470 88
2003-03-05 11:42:13 51°9.456 2°36.904 10.9 260 10.6 101470 87
2003-03-05 11:42:17 51°9.45 2°36.883 10.9 263 10.6 101470 87
2003-03-05 11:42:21 51°9.444 2°36.862 11.2 261 10.6 101470 87
2003-03-05 11:42:28 51°9.434 2°36.825 10.9 263 10.6 101470 87
2003-03-05 11:42:33 51°9.427 2°36.798 10.3 264 10.6 101470 87
2003-03-05 11:42:37 51°9.422 2°36.776 10.1 261 10.6 101470 87
2003-03-05 11:42:43 51°9.414 2°36.744 10 263 10.5 101460 87
2003-03-05 11:42:45 51°9.412 2°36.733 10.4 264 10.5 101460 87
2003-03-05 11:42:53 51°9.402 2°36.69 9.7 264 10.6 101470 87
2003-03-05 11:42:57 51°9.398 2°36.67 9.4 267 10.6 101470 87
2003-03-05 11:43:01 51°9.394 2°36.65 9 270 10.5 101460 87
2003-03-05 11:43:08 51°9.388 2°36.619 9 271 10.5 101460 87
2003-03-05 11:43:13 51°9.384 2°36.598 8.7 273 10.5 101470 87
2003-03-05 11:43:17 51°9.381 2°36.583 8.1 276 10.5 101470 87
2003-03-05 11:43:23 51°9.376 2°36.561 8 276 10.5 101470 87
2003-03-05 11:43:25 51°9.374 2°36.555 7.7 273 10.5 101470 87
2003-03-05 11:43:33 51°9.368 2°36.529 7.8 277 10.5 101480 87
2003-03-05 11:43:37 51°9.364 2°36.517 7.4 276 10.5 101480 87
2003-03-05 11:43:40 51°9.362 2°36.508 7.3 279 10.5 101480 87
2003-03-05 11:43:46 51°9.357 2°36.492 6.9 281 10.5 101480 87
2003-03-05 11:43:53 51°9.352 2°36.474 7.1 282 10.5 101480 87
2003-03-05 11:43:57 51°9.349 2°36.464 6.7 284 10.5 101480 87
2003-03-05 11:44:01 51°9.346 2°36.455 7 285 10.5 101480 87
2003-03-05 11:44:06 51°9.343 2°36.444 7 285 10.5 101480 87
2003-03-05 11:44:13 51°9.339 2°36.429 6.9 286 10.5 101490 88
2003-03-05 11:44:17 51°9.337 2°36.42 6.8 285 10.5 101490 88
2003-03-05 11:44:23 51°9.334 2°36.408 6.7 287 10.5 101480 88
2003-03-05 11:44:27 51°9.332 2°36.401 6.7 286 10.5 101480 88
2003-03-05 11:44:33 51°9.329 2°36.389 6.5 289 10.5 101490 88
2003-03-05 11:44:38 51°9.327 2°36.381 6.2 288 10.5 101490 88
2003-03-05 11:44:41 51°9.326 2°36.375 6.2 292 10.6 101490 88
2003-03-05 11:44:45 51°9.325 2°36.369 6.1 292 10.6 101490 88
2003-03-05 11:44:53 51°9.322 2°36.356 6.1 293 10.5 101480 88
2003-03-05 11:44:57 51°9.321 2°36.349 5.9 295 10.5 101480 88
2003-03-05 11:45:03 51°9.319 2°36.34 6 294 10.5 101490 88
2003-03-05 11:45:08 51°9.318 2°36.333 6 293 10.5 101490 88
2003-03-05 11:45:19 51°9.315 2°36.317 5.9 294 10.5 101490 88
2003-03-05 11:45:24 51°9.314 2°36.31 5.9 295 10.5 101490 88
2003-03-05 11:45:35 51°9.311 2°36.297 5.6 296 10.5 101490 88
2003-03-05 11:45:40 51°9.31 2°36.291 5.7 299 10.5 101490 88
2003-03-05 11:45:52 51°9.307 2°36.277 5.6 296 10.5 101490 87
2003-03-05 11:45:57 51°9.306 2°36.272 6 299 10.5 101490 87
2003-03-05 11:46:01 51°9.305 2°36.268 6.1 298 10.5 101490 87
2003-03-05 11:46:07 51°9.304 2°36.262 5.9 299 10.5 101490 87
2003-03-05 11:46:12 51°9.303 2°36.258 5.7 299 10.5 101490 87
2003-03-05 11:46:17 51°9.302 2°36.254 5.8 296 10.5 101490 87
2003-03-05 11:46:21 51°9.301 2°36.252 5.9 297 10.5 101490 87
2003-03-05 11:46:25 51°9.3 2°36.249 5.6 300 10.5 101490 87
2003-03-05 11:46:30 51°9.3 2°36.247 5.4 300 10.5 101490 87
2003-03-05 11:46:37 51°9.299 2°36.246 4.9 302 10.5 101490 87
2003-03-05 11:46:41 51°9.299 2°36.247 4.2 303 10.5 101490 87
2003-03-05 11:46:46 51°9.3 2°36.248 4.5 303 10.5 101490 87
2003-03-05 11:46:52 51°9.301 2°36.251 4.7 301 10.5 101490 87
2003-03-05 11:46:57 51°9.302 2°36.253 4.3 305 10.5 101490 87
2003-03-05 11:47:01 51°9.303 2°36.255 3.9 302 10.5 101490 87
2003-03-05 11:47:06 51°9.304 2°36.257 3.8 302 10.5 101490 87
2003-03-05 11:47:12 51°9.304 2°36.259 4.3 304 10.5 101490 87
2003-03-05 11:47:17 51°9.305 2°36.261 4 305 10.5 101490 87
2003-03-05 11:47:21 51°9.306 2°36.262 4.5 305 10.5 101490 87
2003-03-05 11:47:27 51°9.307 2°36.264 4.9 310 10.5 101490 87
2003-03-05 11:47:29 51°9.307 2°36.265 4.7 305 10.5 101490 87
2003-03-05 11:47:37 51°9.309 2°36.268 4.8 305 10.5 101490 87